createdAt,value
2023-04-09T00:00:30.164Z,98891.06
2023-04-09T00:02:57.926Z,98892.66
2023-04-09T00:05:25.737Z,98889.78
2023-04-09T00:07:53.496Z,98895.22
2023-04-09T00:10:21.163Z,98888.19
2023-04-09T00:12:50.364Z,98888.78
2023-04-09T00:15:30.090Z,98881.53
2023-04-09T00:17:59.236Z,98882.53
2023-04-09T00:20:26.991Z,98882.88
2023-04-09T00:22:56.262Z,98878.56
2023-04-09T00:25:24.030Z,98880.53
2023-04-09T00:27:53.147Z,98878.81
2023-04-09T00:30:21.432Z,98883.38
2023-04-09T00:32:49.387Z,98886.59
2023-04-09T00:35:17.541Z,98881.78
2023-04-09T00:37:45.301Z,98885.63
2023-04-09T00:40:13.153Z,98876.38
2023-04-09T00:42:41.619Z,98881.03
2023-04-09T00:45:11.532Z,98887.56
2023-04-09T00:47:39.309Z,98882.00
2023-04-09T00:50:07.787Z,98880.00
2023-04-09T00:52:35.876Z,98878.19
2023-04-09T00:55:05.898Z,98883.63
2023-04-09T00:57:33.659Z,98882.63
2023-04-09T01:00:01.301Z,98883.38
2023-04-09T01:02:31.017Z,98883.47
2023-04-09T01:04:59.247Z,98878.56
2023-04-09T01:07:40.372Z,98875.94
2023-04-09T01:10:18.037Z,98881.66
2023-04-09T01:12:55.653Z,98872.50
2023-04-09T01:15:27.640Z,98879.06
2023-04-09T01:18:03.841Z,98875.09
2023-04-09T01:20:36.574Z,98871.41
2023-04-09T01:23:15.458Z,98878.44
2023-04-09T01:25:53.356Z,98866.81
2023-04-09T01:28:24.927Z,98865.22
2023-04-09T01:30:57.762Z,98871.63
2023-04-09T01:33:26.577Z,98868.78
2023-04-09T01:35:55.935Z,98881.50
2023-04-09T01:38:25.174Z,98877.66
2023-04-09T01:40:53.796Z,98867.78
2023-04-09T01:43:23.428Z,98876.94
2023-04-09T01:45:52.550Z,98871.47
2023-04-09T01:48:21.549Z,98868.41
2023-04-09T01:50:49.893Z,98871.00
2023-04-09T01:53:17.956Z,98872.13
2023-04-09T01:55:45.650Z,98871.63
2023-04-09T01:58:13.390Z,98883.72
2023-04-09T02:00:50.710Z,98878.09
2023-04-09T02:03:22.500Z,98873.69
2023-04-09T02:05:56.869Z,98882.56
2023-04-09T02:08:26.227Z,98882.56
2023-04-09T02:10:59.186Z,98888.59
2023-04-09T02:13:28.090Z,98884.75
2023-04-09T02:15:58.927Z,98883.44
2023-04-09T02:18:28.623Z,98889.00
2023-04-09T02:20:56.860Z,98886.16
2023-04-09T02:23:25.227Z,98882.66
2023-04-09T02:25:53.935Z,98884.38
2023-04-09T02:28:21.616Z,98885.47
2023-04-09T02:30:49.398Z,98888.81
2023-04-09T02:33:18.422Z,98889.44
2023-04-09T02:35:46.124Z,98890.84
2023-04-09T02:38:16.000Z,98883.69
2023-04-09T02:40:43.923Z,98888.81
2023-04-09T02:43:11.816Z,98886.75
2023-04-09T02:45:39.775Z,98881.59
2023-04-09T02:48:07.457Z,98883.41
2023-04-09T02:50:36.549Z,98883.41
2023-04-09T02:53:04.404Z,98887.81
2023-04-09T02:55:32.372Z,98883.72
2023-04-09T02:58:00.054Z,98887.81
2023-04-09T03:00:27.743Z,98875.66
2023-04-09T03:02:55.924Z,98875.78
2023-04-09T03:05:23.757Z,98881.31
2023-04-09T03:07:52.926Z,98879.41
2023-04-09T03:10:20.726Z,98870.13
2023-04-09T03:12:48.497Z,98868.50
2023-04-09T03:15:16.798Z,98873.94
2023-04-09T03:17:44.484Z,98872.72
2023-04-09T03:20:12.423Z,98870.28
2023-04-09T03:22:40.879Z,98877.53
2023-04-09T03:25:10.770Z,98874.81
2023-04-09T03:27:38.441Z,98883.09
2023-04-09T03:30:06.991Z,98879.88
2023-04-09T03:32:34.694Z,98876.50
2023-04-09T03:35:02.416Z,98879.50
2023-04-09T03:37:30.180Z,98887.78
2023-04-09T03:39:57.889Z,98891.16
2023-04-09T03:42:27.037Z,98874.31
2023-04-09T03:44:54.844Z,98882.59
2023-04-09T03:47:22.613Z,98895.38
2023-04-09T03:49:50.306Z,98887.53
2023-04-09T03:52:17.986Z,98885.91
2023-04-09T03:54:45.664Z,98890.91
2023-04-09T03:57:13.362Z,98888.28
2023-04-09T03:59:42.379Z,98898.69
2023-04-09T04:02:10.332Z,98893.94
2023-04-09T04:04:38.353Z,98902.06
2023-04-09T04:07:06.416Z,98895.63
2023-04-09T04:09:34.424Z,98893.59
2023-04-09T04:12:03.409Z,98900.25
2023-04-09T04:14:31.329Z,98903.25
2023-04-09T04:17:00.566Z,98896.06
2023-04-09T04:19:28.446Z,98902.38
2023-04-09T04:21:56.255Z,98905.16
2023-04-09T04:24:24.151Z,98905.38
2023-04-09T04:26:52.102Z,98906.25
2023-04-09T04:29:20.154Z,98910.59
2023-04-09T04:31:48.012Z,98914.50
2023-04-09T04:34:17.465Z,98913.34
2023-04-09T04:36:45.345Z,98919.94
2023-04-09T04:39:13.216Z,98922.63
2023-04-09T04:41:41.188Z,98926.00
2023-04-09T04:44:08.835Z,98920.59
2023-04-09T04:46:36.506Z,98923.31
2023-04-09T04:49:04.296Z,98926.06
2023-04-09T04:51:33.403Z,98930.66
2023-04-09T04:54:01.301Z,98925.03
2023-04-09T04:56:29.238Z,98931.63
2023-04-09T04:58:57.106Z,98932.84
2023-04-09T05:01:24.954Z,98935.41
2023-04-09T05:03:53.628Z,98937.72
2023-04-09T05:06:21.515Z,98931.16
2023-04-09T05:08:51.232Z,98930.00
2023-04-09T05:11:19.246Z,98924.13
2023-04-09T05:13:47.055Z,98931.16
2023-04-09T05:16:18.971Z,98931.72
2023-04-09T05:18:47.160Z,98937.59
2023-04-09T05:21:15.078Z,98930.59
2023-04-09T05:23:42.905Z,98942.50
2023-04-09T05:26:12.169Z,98940.25
2023-04-09T05:28:40.186Z,98939.66
2023-04-09T05:31:12.847Z,98938.50
2023-04-09T05:33:41.188Z,98942.06
2023-04-09T05:36:09.463Z,98940.34
2023-04-09T05:38:37.195Z,98936.09
2023-04-09T05:41:04.877Z,98940.53
2023-04-09T05:43:33.840Z,98938.41
2023-04-09T05:46:01.597Z,98941.22
2023-04-09T05:48:29.409Z,98938.97
2023-04-09T05:50:59.026Z,98942.19
2023-04-09T05:53:28.374Z,98939.47
2023-04-09T05:55:56.373Z,98949.41
2023-04-09T05:58:24.370Z,98938.66
2023-04-09T06:00:53.589Z,98947.28
2023-04-09T06:03:21.648Z,98948.84
2023-04-09T06:05:49.616Z,98947.66
2023-04-09T06:08:17.428Z,98952.00
2023-04-09T06:10:45.206Z,98951.38
2023-04-09T06:13:13.075Z,98953.38
2023-04-09T06:15:41.167Z,98952.09
2023-04-09T06:18:10.573Z,98952.38
2023-04-09T06:20:38.341Z,98949.47
2023-04-09T06:23:06.482Z,98957.88
2023-04-09T06:25:34.373Z,98958.09
2023-04-09T06:28:03.049Z,98967.59
2023-04-09T06:30:31.989Z,98952.81
2023-04-09T06:32:59.917Z,98957.13
2023-04-09T06:35:28.966Z,98953.94
2023-04-09T06:37:56.624Z,98965.25
2023-04-09T06:40:24.714Z,98958.94
2023-04-09T06:42:52.404Z,98967.25
2023-04-09T06:45:20.112Z,98966.31
2023-04-09T06:47:48.383Z,98973.09
2023-04-09T06:50:16.232Z,98968.63
2023-04-09T06:52:45.539Z,98977.03
2023-04-09T06:55:13.914Z,98967.44
2023-04-09T06:57:42.029Z,98982.16
2023-04-09T07:00:10.944Z,98977.81
2023-04-09T07:02:39.063Z,98974.25
2023-04-09T07:05:07.864Z,98965.44
2023-04-09T07:07:35.558Z,98974.31
2023-04-09T07:10:06.417Z,98969.13
2023-04-09T07:12:35.719Z,98974.75
2023-04-09T07:15:05.757Z,98968.44
2023-04-09T07:17:33.907Z,98972.44
2023-04-09T07:20:01.923Z,98971.34
2023-04-09T07:22:31.183Z,98967.19
2023-04-09T07:24:59.010Z,98969.66
2023-04-09T07:27:29.238Z,98980.44
2023-04-09T07:29:57.868Z,98974.78
2023-04-09T07:32:26.986Z,98987.16
2023-04-09T07:34:55.139Z,98976.09
2023-04-09T07:37:23.281Z,98973.56
2023-04-09T07:39:51.509Z,98989.59
2023-04-09T07:42:19.099Z,98978.44
2023-04-09T07:44:48.098Z,98985.28
2023-04-09T07:47:16.042Z,98975.88
2023-04-09T07:49:43.757Z,98977.88
2023-04-09T07:52:11.632Z,98987.63
2023-04-09T07:54:39.293Z,98982.09
2023-04-09T07:57:07.222Z,98987.31
2023-04-09T07:59:36.309Z,98982.78
2023-04-09T08:02:05.574Z,98987.06
2023-04-09T08:04:33.426Z,98986.03
2023-04-09T08:07:01.280Z,98984.09
2023-04-09T08:09:28.939Z,98991.84
2023-04-09T08:11:57.207Z,98988.47
2023-04-09T08:14:24.858Z,98982.94
2023-04-09T08:16:52.585Z,98981.38
2023-04-09T08:19:21.695Z,98978.38
2023-04-09T08:21:49.694Z,98976.75
2023-04-09T08:24:18.237Z,98981.44
2023-04-09T08:26:46.038Z,98992.69
2023-04-09T08:29:14.570Z,98981.94
2023-04-09T08:31:43.020Z,98975.34
2023-04-09T08:34:10.716Z,98967.63
2023-04-09T08:36:39.757Z,98979.97
2023-04-09T08:39:07.412Z,98976.03
2023-04-09T08:41:37.212Z,98973.38
2023-04-09T08:44:05.048Z,98969.59
2023-04-09T08:46:32.724Z,98973.41
2023-04-09T08:49:00.370Z,98975.00
2023-04-09T08:51:28.755Z,98975.53
2023-04-09T08:54:01.478Z,98976.78
2023-04-09T08:56:31.974Z,98978.41
2023-04-09T08:59:00.194Z,98972.44
2023-04-09T09:01:30.238Z,98975.59
2023-04-09T09:04:00.994Z,98978.06
2023-04-09T09:06:32.886Z,98967.19
2023-04-09T09:09:04.823Z,98970.06
2023-04-09T09:11:32.640Z,98969.50
2023-04-09T09:14:02.756Z,98975.38
2023-04-09T09:16:31.401Z,98962.44
2023-04-09T09:19:00.261Z,98975.28
2023-04-09T09:21:29.980Z,98977.41
2023-04-09T09:23:58.567Z,98976.72
2023-04-09T09:26:29.310Z,98969.69
2023-04-09T09:28:58.885Z,98972.59
2023-04-09T09:31:27.128Z,98971.09
2023-04-09T09:33:55.405Z,98965.38
2023-04-09T09:36:33.332Z,98958.50
2023-04-09T09:39:05.317Z,98961.72
2023-04-09T09:41:34.365Z,98960.66
2023-04-09T09:44:03.371Z,98962.69
2023-04-09T09:46:35.085Z,98970.47
2023-04-09T09:49:02.858Z,98963.44
2023-04-09T09:51:33.816Z,98959.31
2023-04-09T09:54:04.897Z,98964.53
2023-04-09T09:56:38.841Z,98959.31
2023-04-09T09:59:11.544Z,98968.38
2023-04-09T10:01:42.403Z,98960.16
2023-04-09T10:04:14.857Z,98966.31
2023-04-09T10:06:45.156Z,98968.78
2023-04-09T10:09:13.954Z,98960.78
2023-04-09T10:11:45.582Z,98966.84
2023-04-09T10:14:14.630Z,98955.19
2023-04-09T10:16:42.975Z,98945.19
2023-04-09T10:19:14.146Z,98940.97
2023-04-09T10:21:48.516Z,98937.75
2023-04-09T10:24:17.462Z,98933.47
2023-04-09T10:26:46.936Z,98932.88
2023-04-09T10:29:16.521Z,98928.41
2023-04-09T10:31:53.348Z,98925.44
2023-04-09T10:34:23.437Z,98934.16
2023-04-09T10:36:54.007Z,98941.56
2023-04-09T10:39:22.254Z,98936.78
2023-04-09T10:41:51.876Z,98939.06
2023-04-09T10:44:23.460Z,98935.41
2023-04-09T10:46:54.077Z,98926.50
2023-04-09T10:49:23.863Z,98931.38
2023-04-09T10:51:55.606Z,98938.50
2023-04-09T10:54:45.950Z,98934.09
2023-04-09T10:57:22.496Z,98926.50
2023-04-09T10:59:52.553Z,98928.94
2023-04-09T11:03:01.715Z,98926.97
2023-04-09T11:05:34.037Z,98925.63
2023-04-09T11:08:07.716Z,98926.63
2023-04-09T11:10:35.661Z,98926.91
2023-04-09T11:13:05.080Z,98921.50
2023-04-09T11:15:35.392Z,98919.31
2023-04-09T11:18:03.683Z,98918.28
2023-04-09T11:20:32.045Z,98915.84
2023-04-09T11:23:00.692Z,98933.06
2023-04-09T11:25:29.508Z,98922.81
2023-04-09T11:27:57.248Z,98921.22
2023-04-09T11:30:26.564Z,98906.94
2023-04-09T11:32:54.539Z,98898.66
2023-04-09T11:35:24.216Z,98911.91
2023-04-09T11:37:52.431Z,98915.34
2023-04-09T11:40:21.612Z,98916.28
2023-04-09T11:42:50.956Z,98916.44
2023-04-09T11:45:19.457Z,98908.31
2023-04-09T11:47:48.968Z,98908.28
2023-04-09T11:50:17.186Z,98906.31
2023-04-09T11:52:46.160Z,98907.00
2023-04-09T11:55:24.224Z,98898.09
2023-04-09T11:57:54.255Z,98892.59
2023-04-09T12:00:22.231Z,98888.84
2023-04-09T12:02:52.992Z,98902.59
2023-04-09T12:05:25.831Z,98897.78
2023-04-09T12:07:58.850Z,98893.25
2023-04-09T12:10:29.038Z,98907.97
2023-04-09T12:13:01.767Z,98898.00
2023-04-09T12:15:33.557Z,98899.75
2023-04-09T12:18:03.380Z,98900.50
2023-04-09T12:20:33.172Z,98900.34
2023-04-09T12:23:03.460Z,98899.19
2023-04-09T12:25:32.027Z,98902.44
2023-04-09T12:28:00.000Z,98895.13
2023-04-09T12:30:27.716Z,98896.94
2023-04-09T12:32:55.830Z,98899.84
2023-04-09T12:35:24.922Z,98893.78
2023-04-09T12:37:52.842Z,98893.81
2023-04-09T12:40:21.308Z,98888.91
2023-04-09T12:42:49.661Z,98890.78
2023-04-09T12:45:19.254Z,98881.72
2023-04-09T12:47:47.460Z,98882.63
2023-04-09T12:50:16.207Z,98870.13
2023-04-09T12:52:45.881Z,98875.81
2023-04-09T12:55:15.069Z,98879.41
2023-04-09T12:57:45.321Z,98882.41
2023-04-09T13:00:14.029Z,98876.09
2023-04-09T13:02:41.990Z,98881.00
2023-04-09T13:05:10.423Z,98873.81
2023-04-09T13:07:38.217Z,98875.19
2023-04-09T13:10:08.445Z,98866.41
2023-04-09T13:12:36.526Z,98863.81
2023-04-09T13:15:04.448Z,98865.06
2023-04-09T13:17:32.281Z,98866.63
2023-04-09T13:19:59.946Z,98865.13
2023-04-09T13:22:27.628Z,98867.91
2023-04-09T13:24:55.584Z,98858.59
2023-04-09T13:27:24.671Z,98851.06
2023-04-09T13:29:52.495Z,98856.50
2023-04-09T13:32:21.995Z,98849.75
2023-04-09T13:34:49.802Z,98848.34
2023-04-09T13:37:17.813Z,98840.28
2023-04-09T13:39:45.843Z,98849.97
2023-04-09T13:42:14.324Z,98847.69
2023-04-09T13:44:45.393Z,98847.66
2023-04-09T13:47:13.958Z,98841.13
2023-04-09T13:49:42.050Z,98843.34
2023-04-09T13:52:10.586Z,98840.69
2023-04-09T13:54:38.554Z,98839.97
2023-04-09T13:57:06.442Z,98838.69
2023-04-09T13:59:34.183Z,98839.22
2023-04-09T14:02:03.373Z,98838.59
2023-04-09T14:04:31.391Z,98828.22
2023-04-09T14:06:59.073Z,98828.34
2023-04-09T14:09:26.732Z,98828.34
2023-04-09T14:11:56.098Z,98827.28
2023-04-09T14:14:23.955Z,98814.00
2023-04-09T14:16:51.595Z,98815.34
2023-04-09T14:19:20.577Z,98816.03
2023-04-09T14:21:48.331Z,98810.09
2023-04-09T14:24:16.022Z,98807.88
2023-04-09T14:26:43.662Z,98815.44
2023-04-09T14:29:11.332Z,98803.59
2023-04-09T14:31:38.973Z,98803.00
2023-04-09T14:34:06.677Z,98803.81
2023-04-09T14:36:35.848Z,98801.81
2023-04-09T14:39:03.544Z,98806.50
2023-04-09T14:41:34.063Z,98802.41
2023-04-09T14:44:01.709Z,98785.25
2023-04-09T14:46:29.394Z,98787.41
2023-04-09T14:48:57.112Z,98788.56
2023-04-09T14:51:24.779Z,98795.06
2023-04-09T14:53:53.824Z,98783.50
2023-04-09T14:56:21.814Z,98788.13
2023-04-09T14:58:49.508Z,98790.31
2023-04-09T15:01:17.304Z,98785.22
2023-04-09T15:03:45.337Z,98753.81
2023-04-09T15:06:13.406Z,98781.75
2023-04-09T15:08:41.081Z,98781.91
2023-04-09T15:11:16.014Z,98786.34
2023-04-09T15:13:43.676Z,98786.19
2023-04-09T15:16:11.464Z,98784.13
2023-04-09T15:18:39.196Z,98784.13
2023-04-09T15:21:07.196Z,98786.00
2023-04-09T15:23:35.727Z,98778.66
2023-04-09T15:26:03.350Z,98774.75
2023-04-09T15:28:32.496Z,98786.56
2023-04-09T15:31:00.210Z,98785.59
2023-04-09T15:33:28.054Z,98783.13
2023-04-09T15:35:55.782Z,98782.31
2023-04-09T15:38:25.189Z,98773.97
2023-04-09T15:40:52.960Z,98782.31
2023-04-09T15:43:20.558Z,98781.69
2023-04-09T15:45:49.645Z,98772.75
2023-04-09T15:48:17.711Z,98779.09
2023-04-09T15:50:45.381Z,98769.44
2023-04-09T15:53:14.034Z,98777.66
2023-04-09T15:55:41.743Z,98766.06
2023-04-09T15:58:09.457Z,98772.25
2023-04-09T16:00:37.190Z,98769.00
2023-04-09T16:03:06.225Z,98775.03
2023-04-09T16:05:33.909Z,98768.38
2023-04-09T16:08:02.135Z,98774.44
2023-04-09T16:10:29.747Z,98773.94
2023-04-09T16:12:57.532Z,98774.25
2023-04-09T16:15:25.239Z,98773.25
2023-04-09T16:17:53.207Z,98780.66
2023-04-09T16:20:23.031Z,98779.28
2023-04-09T16:22:51.388Z,98777.25
2023-04-09T16:25:19.709Z,98777.97
2023-04-09T16:27:50.035Z,98789.06
2023-04-09T16:30:18.455Z,98777.72
2023-04-09T16:32:46.974Z,98781.25
2023-04-09T16:35:15.712Z,98785.41
2023-04-09T16:37:45.132Z,98783.22
2023-04-09T16:40:13.297Z,98789.03
2023-04-09T16:42:41.008Z,98784.22
2023-04-09T16:45:09.660Z,98788.56
2023-04-09T16:47:37.356Z,98786.09
2023-04-09T16:50:10.388Z,98784.94
2023-04-09T16:52:38.397Z,98790.66
2023-04-09T16:55:08.697Z,98788.84
2023-04-09T16:57:36.468Z,98793.66
2023-04-09T17:00:05.055Z,98788.47
2023-04-09T17:02:32.924Z,98787.56
2023-04-09T17:05:01.021Z,98784.16
2023-04-09T17:07:28.683Z,98792.84
2023-04-09T17:09:57.001Z,98792.63
2023-04-09T17:12:26.726Z,98798.31
2023-04-09T17:14:54.633Z,98790.56
2023-04-09T17:17:22.433Z,98790.16
2023-04-09T17:19:50.157Z,98803.16
2023-04-09T17:22:17.920Z,98795.41
2023-04-09T17:24:45.557Z,98799.97
2023-04-09T17:27:13.204Z,98803.16
2023-04-09T17:29:42.813Z,98806.13
2023-04-09T17:32:10.444Z,98805.44
2023-04-09T17:34:38.098Z,98811.41
2023-04-09T17:37:05.725Z,98804.91
2023-04-09T17:39:33.352Z,98810.59
2023-04-09T17:42:03.308Z,98805.94
2023-04-09T17:44:35.027Z,98815.28
2023-04-09T17:47:04.175Z,98813.22
2023-04-09T17:49:32.655Z,98821.34
2023-04-09T17:52:00.500Z,98815.06
2023-04-09T17:54:33.386Z,98820.31
2023-04-09T17:57:01.259Z,98828.72
2023-04-09T17:59:28.955Z,98827.38
2023-04-09T18:01:56.784Z,98822.78
2023-04-09T18:04:26.244Z,98824.25
2023-04-09T18:06:55.399Z,98832.13
2023-04-09T18:09:23.043Z,98829.19
2023-04-09T18:11:54.735Z,98828.69
2023-04-09T18:14:22.373Z,98830.03
2023-04-09T18:16:50.129Z,98830.47
2023-04-09T18:19:17.757Z,98834.69
2023-04-09T18:21:46.765Z,98838.88
2023-04-09T18:24:14.489Z,98844.69
2023-04-09T18:26:42.098Z,98840.34
2023-04-09T18:29:09.754Z,98846.34
2023-04-09T18:31:37.447Z,98848.66
2023-04-09T18:34:05.136Z,98844.53
2023-04-09T18:36:32.753Z,98846.25
2023-04-09T18:39:02.144Z,98853.06
2023-04-09T18:41:30.506Z,98848.41
2023-04-09T18:43:58.253Z,98857.88
2023-04-09T18:46:26.567Z,98866.03
2023-04-09T18:48:54.509Z,98861.50
2023-04-09T18:51:22.369Z,98866.41
2023-04-09T18:53:53.793Z,98868.16
2023-04-09T18:56:22.949Z,98875.38
2023-04-09T18:58:51.938Z,98873.75
2023-04-09T19:01:20.677Z,98871.69
2023-04-09T19:03:48.697Z,98878.03
2023-04-09T19:06:18.455Z,98882.16
2023-04-09T19:08:46.474Z,98885.06
2023-04-09T19:11:14.924Z,98881.91
2023-04-09T19:13:43.930Z,98889.19
2023-04-09T19:16:12.248Z,98879.22
2023-04-09T19:18:39.942Z,98882.56
2023-04-09T19:21:08.709Z,98881.63
2023-04-09T19:23:36.425Z,98882.94
2023-04-09T19:26:05.496Z,98889.09
2023-04-09T19:28:33.361Z,98894.53
2023-04-09T19:31:03.547Z,98892.09
2023-04-09T19:33:31.783Z,98890.81
2023-04-09T19:35:59.538Z,98900.09
2023-04-09T19:38:27.314Z,98901.22
2023-04-09T19:40:55.389Z,98895.47
2023-04-09T19:43:23.245Z,98899.97
2023-04-09T19:45:51.100Z,98904.97
2023-04-09T19:48:20.421Z,98902.78
2023-04-09T19:50:48.935Z,98898.94
2023-04-09T19:53:16.643Z,98897.53
2023-04-09T19:55:44.737Z,98895.13
2023-04-09T19:58:12.466Z,98904.59
2023-04-09T20:00:40.292Z,98903.47
2023-04-09T20:03:08.212Z,98899.69
2023-04-09T20:05:37.415Z,98901.59
2023-04-09T20:08:05.526Z,98900.16
2023-04-09T20:10:33.292Z,98902.72
2023-04-09T20:13:01.656Z,98902.25
2023-04-09T20:15:29.506Z,98910.44
2023-04-09T20:17:57.641Z,98909.00
2023-04-09T20:20:27.778Z,98915.13
2023-04-09T20:22:57.637Z,98917.84
2023-04-09T20:25:25.984Z,98916.75
2023-04-09T20:27:54.181Z,98917.91
2023-04-09T20:30:22.543Z,98918.38
2023-04-09T20:32:50.385Z,98915.97
2023-04-09T20:35:18.194Z,98916.94
2023-04-09T20:37:48.388Z,98919.03
2023-04-09T20:40:19.713Z,98916.13
2023-04-09T20:42:47.433Z,98913.09
2023-04-09T20:45:15.741Z,98911.16
2023-04-09T20:47:43.562Z,98919.66
2023-04-09T20:50:12.193Z,98910.34
2023-04-09T20:52:39.981Z,98921.22
2023-04-09T20:55:08.391Z,98920.25
2023-04-09T20:57:37.521Z,98910.97
2023-04-09T21:00:06.270Z,98916.91
2023-04-09T21:02:34.164Z,98920.09
2023-04-09T21:05:11.705Z,98926.03
2023-04-09T21:07:49.400Z,98926.28
2023-04-09T21:10:17.300Z,98916.94
2023-04-09T21:12:46.464Z,98918.56
2023-04-09T21:15:14.196Z,98921.28
2023-04-09T21:17:41.958Z,98925.16
2023-04-09T21:20:10.807Z,98921.31
2023-04-09T21:22:38.503Z,98919.56
2023-04-09T21:25:07.298Z,98926.41
2023-04-09T21:27:35.113Z,98917.28
2023-04-09T21:30:04.541Z,98914.25
2023-04-09T21:32:32.642Z,98917.94
2023-04-09T21:35:00.472Z,98924.19
2023-04-09T21:37:28.903Z,98921.31
2023-04-09T21:39:56.590Z,98924.81
2023-04-09T21:42:24.250Z,98918.50
2023-04-09T21:44:51.996Z,98924.00
2023-04-09T21:47:21.126Z,98917.88
2023-04-09T21:49:50.205Z,98924.03
2023-04-09T21:52:18.050Z,98925.63
2023-04-09T21:54:45.770Z,98924.22
2023-04-09T21:57:13.597Z,98922.41
2023-04-09T21:59:42.193Z,98927.47
2023-04-09T22:02:10.682Z,98924.41
2023-04-09T22:04:42.499Z,98929.44
2023-04-09T22:07:11.246Z,98926.22
2023-04-09T22:09:39.291Z,98929.09
2023-04-09T22:12:07.227Z,98931.91
2023-04-09T22:14:35.043Z,98926.22
2023-04-09T22:17:03.043Z,98923.00
2023-04-09T22:19:31.941Z,98924.69
2023-04-09T22:22:01.043Z,98923.00
2023-04-09T22:24:29.675Z,98926.00
2023-04-09T22:26:58.932Z,98926.72
2023-04-09T22:29:27.206Z,98924.88
2023-04-09T22:31:54.966Z,98928.50
2023-04-09T22:34:22.665Z,98933.97
2023-04-09T22:36:50.724Z,98927.53
2023-04-09T22:39:19.795Z,98925.72
2023-04-09T22:41:47.621Z,98934.97
2023-04-09T22:44:15.322Z,98934.56
2023-04-09T22:46:43.248Z,98931.25
2023-04-09T22:49:11.481Z,98931.16
2023-04-09T22:51:41.305Z,98928.66
2023-04-09T22:54:09.611Z,98926.53
2023-04-09T22:56:38.650Z,98932.59
2023-04-09T22:59:06.659Z,98931.97
2023-04-09T23:01:34.598Z,98934.22
2023-04-09T23:04:02.557Z,98938.59
2023-04-09T23:06:30.872Z,98931.56
2023-04-09T23:08:59.746Z,98945.44
2023-04-09T23:11:27.604Z,98938.22
2023-04-09T23:13:56.680Z,98936.53
2023-04-09T23:16:24.449Z,98934.41
2023-04-09T23:18:52.499Z,98936.59
2023-04-09T23:21:20.743Z,98943.66
2023-04-09T23:23:48.966Z,98949.31
2023-04-09T23:26:16.698Z,98939.47
2023-04-09T23:28:44.413Z,98950.50
2023-04-09T23:31:13.497Z,98941.28
2023-04-09T23:33:41.258Z,98943.59
2023-04-09T23:36:09.520Z,98943.28
2023-04-09T23:38:37.276Z,98932.06
2023-04-09T23:41:05.582Z,98942.78
2023-04-09T23:43:33.265Z,98939.91
2023-04-09T23:46:01.124Z,98938.25
2023-04-09T23:48:30.378Z,98939.84
2023-04-09T23:50:58.095Z,98930.84
2023-04-09T23:53:26.328Z,98937.28
2023-04-09T23:55:54.073Z,98929.41
2023-04-09T23:58:22.518Z,98926.22
